Flight Track Log - Related Links

Times and Time Zones

All times are in EDT time to prevent confusion due to time zone crossing. See the BJS439 flight status page for this flight to view local times or setup timezone preferences in your user account.

Time Position Orientation Groundspeed Altitude Reporting Facility
EDT Latitude Longitude Course Direction KTS MPH feet Rate Location/Type
Sat 08:51:50 42.4667 -71.3167 236° Southwest 164 189 1,100  Level KA90
Sat 08:52:26 42.4500 -71.3500 236° Southwest 190 219 1,800 2,089 Climbing KA90
Sat 08:54:28 42.3797 -71.4733 232° Southwest 231 266 6,600 3,099 Climbing Boston Center
Sat 08:55:28 42.3575 -71.5831 255° West 258 297 11,200 4,150 Climbing Boston Center
Sat 08:56:28 42.3542 -71.6872 268° West 301 346 14,900 3,800 Climbing Boston Center
Sat 08:57:28 42.3258 -71.8250 254° West 338 389 18,800 3,600 Climbing Boston Center
Sat 08:58:28 42.2681 -71.9267 232° Southwest 346 398 22,100 3,250 Climbing Boston Center
Sat 08:59:28 42.1997 -72.0422 231° Southwest 373 429 25,300 3,050 Climbing Boston Center
Sat 09:00:28 42.1292 -72.1631 232° Southwest 395 455 28,200 2,850 Climbing Boston Center
Sat 09:01:28 42.0606 -72.2808 232° Southwest 400 460 31,000 2,579 Climbing Boston Center
Sat 09:02:29 41.9919 -72.3983 232° Southwest 400 460 33,400 2,450 Climbing Boston Center
Sat 09:03:28 41.9231 -72.5125 231° Southwest 400 460 35,900 1,866 Climbing Boston Center
Sat 09:04:28 41.8500 -72.6353 231° Southwest 394 453 37,100 1,050 Climbing Boston Center
Sat 09:05:28 41.7853 -72.7436 231° Southwest 402 463 38,000 950 Climbing Boston Center
Sat 09:06:28 41.7139 -72.8656 232° Southwest 413 475 39,000 950 Climbing Boston Center
Sat 09:07:28 41.6425 -72.9844 231° Southwest 413 475 39,900 933 Climbing Boston Center
Sat 09:09:41 41.4811 -73.2581 232° Southwest 410 472 42,000 928 Climbing New Center
Sat 09:10:42 41.4100 -73.3742 231° Southwest 410 472 42,900 496 Climbing New Center
Sat 09:11:42 41.3364 -73.4956 231° Southwest 420 483 43,000 50 Climbing New Center
Sat 09:12:43 41.2606 -73.6167 230° Southwest 425 489 43,000  Level New Center
Sat 09:13:41 41.1889 -73.7433 233° Southwest 425 489 43,000  Level New Center
Sat 09:14:42 41.1125 -73.8694 231° Southwest 435 501 43,000  Level New Center
Sat 09:15:42 41.0383 -73.9953 232° Southwest 435 501 43,000  Level New Center
Sat 09:16:40 40.9619 -74.1206 231° Southwest 435 501 43,000  Level New Center
Sat 09:17:41 40.8856 -74.2403 230° Southwest 435 501 43,000  Level New Center
Sat 09:18:40 40.8089 -74.3653 231° Southwest 435 501 43,000  Level New Center
Sat 09:19:41 40.7342 -74.4900 232° Southwest 435 501 43,000  Level New Center
Sat 09:20:41 40.6594 -74.6119 231° Southwest 435 501 43,000  Level New Center
Sat 09:21:40 40.5956 -74.7231 233° Southwest 441 507 43,000  Level New Center
Sat 09:22:41 40.5164 -74.8386 228° Southwest 430 495 43,000  Level New Center
Sat 09:23:41 40.4375 -74.9511 227° Southwest 425 489 43,000 50 Level New Center
Sat 09:24:40 40.3586 -75.0608 227° Southwest 420 483 43,100 300 Climbing New Center
Sat 09:25:41 40.2772 -75.1756 227° Southwest 426 490 43,600 492 Climbing New Center
Sat 09:26:42 40.1981 -75.2872 227° Southwest 426 490 44,100 496 Climbing New Center
Sat 09:27:42 40.1164 -75.4014 227° Southwest 426 490 44,600 504 Climbing New Center
Sat 09:28:41 40.0369 -75.5128 227° Southwest 426 490 45,100 504 Climbing New Center
Sat 09:29:41 39.9553 -75.6264 227° Southwest 426 490 45,600 496 Climbing New Center
Sat 09:30:42 39.8797 -75.7375 228° Southwest 426 490 46,100 504 Climbing New Center
Sat 09:31:40 39.8081 -75.8539 231° Southwest 426 490 46,600 283 Climbing New Center
Sat 09:33:53 39.6542 -76.0983 231° Southwest 427 491 47,000 126 Climbing Washington Center
Sat 09:34:51 39.5786 -76.2136 230° Southwest 427 491 47,000  Level Washington Center
Sat 09:35:52 39.5072 -76.3311 232° Southwest 422 486 47,000  Level Washington Center
Sat 09:36:52 39.4272 -76.4458 228° Southwest 427 491 47,000  Level Washington Center
Sat 09:37:53 39.3514 -76.5578 229° Southwest 427 491 47,000  Level Washington Center
Sat 09:38:53 39.2753 -76.6775 231° Southwest 427 491 47,000  Level Washington Center
Sat 09:39:51 39.1992 -76.7994 231° Southwest 432 497 47,000  Level Washington Center
Sat 09:40:51 39.1250 -76.9161 231° Southwest 432 497 47,000  Level Washington Center
Sat 09:41:51 39.0486 -77.0350 230° Southwest 432 497 47,000  Level Washington Center
Sat 09:42:52 38.9578 -77.1344 220° Southwest 432 497 47,000  Level Washington Center
Sat 09:43:53 38.8647 -77.2311 219° Southwest 427 491 47,000  Level Washington Center
Sat 09:44:51 38.7714 -77.3358 221° Southwest 438 504 47,000  Level Washington Center
Sat 09:45:51 38.6803 -77.4372 221° Southwest 438 504 47,000  Level Washington Center
Sat 09:46:52 38.5869 -77.5386 220° Southwest 438 504 47,000  Level Washington Center
Sat 09:47:52 38.4958 -77.6369 220° Southwest 438 504 47,000  Level Washington Center
Sat 09:48:53 38.3958 -77.7428 220° Southwest 430 495 47,000  Level Washington Center
Sat 09:49:50 38.3128 -77.8331 220° Southwest 430 495 47,000  Level Washington Center
Sat 09:50:51 38.2106 -77.9436 220° Southwest 435 501 47,000  Level Washington Center
Sat 09:51:52 38.1189 -78.0436 221° Southwest 440 506 47,000  Level Washington Center
Sat 09:52:52 38.0422 -78.1231 219° Southwest 425 489 47,000  Level Washington Center
Sat 09:53:50 37.9356 -78.2325 219° Southwest 425 489 47,000  Level Washington Center
Sat 09:54:52 37.8375 -78.3264 217° Southwest 430 495 47,000  Level Washington Center
Sat 09:55:52 37.7503 -78.4072 216° Southwest 435 501 47,000  Level Washington Center
Sat 09:56:53 37.6542 -78.4981 217° Southwest 440 506 47,000  Level Washington Center
Sat 09:57:53 37.5539 -78.5939 217° Southwest 445 512 47,000  Level Washington Center
Sat 09:58:51 37.4556 -78.6842 216° Southwest 440 506 47,000  Level Washington Center
Sat 09:59:52 37.3550 -78.7767 216° Southwest 440 506 47,000  Level Washington Center
Sat 10:00:53 37.2458 -78.8792 217° Southwest 440 506 47,000  Level Washington Center
Sat 10:01:51 37.1453 -78.9714 216° Southwest 440 506 47,000  Level Washington Center
Sat 10:02:52 37.0467 -79.0633 217° Southwest 445 512 47,000  Level Washington Center
Sat 10:03:53 36.9461 -79.1522 215° Southwest 445 512 47,000  Level Washington Center
Sat 10:04:53 36.8494 -79.2439 217° Southwest 445 512 47,000  Level Washington Center
Sat 10:05:53 36.7592 -79.3253 216° Southwest 445 512 47,000  Level Washington Center
Sat 10:06:51 36.6625 -79.4189 218° Southwest 445 512 47,000 -375 Level Washington Center
Sat 10:09:05 36.4275 -79.6264 215° Southwest 450 518 45,800 -711 Descending Atlanta Center
Sat 10:10:05 36.3286 -79.7194 217° Southwest 455 524 44,700 -1,250 Descending Atlanta Center
Sat 10:11:05 36.2356 -79.8017 215° Southwest 444 511 43,300 -1,550 Descending Atlanta Center
Sat 10:12:05 36.1464 -79.8783 215° Southwest 439 505 41,600 -1,600 Descending Atlanta Center
Sat 10:13:05 36.0492 -79.9656 216° Southwest 439 505 40,100 -1,500 Descending Atlanta Center
Sat 10:14:05 35.9406 -80.0250 204° Southwest 431 496 38,600 -1,500 Descending Atlanta Center
Sat 10:15:05 35.8278 -80.0842 203° Southwest 431 496 37,100 -1,100 Descending Atlanta Center
Sat 10:16:05 35.7117 -80.1742 212° Southwest 438 504 36,400 -800 Descending Atlanta Center
Sat 10:17:05 35.6200 -80.2475 213° Southwest 449 517 35,500 -950 Descending Atlanta Center
Sat 10:18:05 35.5244 -80.3261 214° Southwest 429 494 34,500 -750 Descending Atlanta Center
Sat 10:19:05 35.4100 -80.4050 209° Southwest 429 494 34,000 -850 Descending Atlanta Center
Sat 10:20:05 35.2858 -80.4386 192° South 450 518 32,800 -1,650 Descending Atlanta Center
Sat 10:21:05 35.1703 -80.4867 199° South 450 518 30,700 -2,050 Descending Atlanta Center
Sat 10:22:05 35.0706 -80.5772 217° Southwest 440 506 28,700 -2,000 Descending Atlanta Center
Sat 10:23:05 34.9686 -80.6600 214° Southwest 448 516 26,700 -1,900 Descending Atlanta Center
Sat 10:24:05 34.8667 -80.7453 214° Southwest 448 516 24,900 -1,241 Descending Atlanta Center
Sat 10:26:28 34.6308 -80.9472 215° Southwest 445 512 22,500 -857 Descending Jacksonville Center
Sat 10:27:28 34.5361 -81.0225 213° Southwest 427 491 22,000 -250 Descending Jacksonville Center
Sat 10:28:28 34.4392 -81.1025 214° Southwest 427 491 22,000 -400 Level Jacksonville Center
Sat 10:29:28 34.3525 -81.1747 215° Southwest 420 483 21,200 -1,350 Descending Jacksonville Center
Sat 10:30:28 34.2556 -81.2494 213° Southwest 414 476 19,300 -1,750 Descending Jacksonville Center
Sat 10:31:28 34.1606 -81.3292 215° Southwest 420 483 17,700 -1,800 Descending Jacksonville Center
Sat 10:32:28 34.0678 -81.4086 215° Southwest 420 483 15,700 -1,950 Descending Jacksonville Center
Sat 10:33:28 33.9725 -81.4828 213° Southwest 420 483 13,800 -1,900 Descending Jacksonville Center
Sat 10:35:00 33.8221 -81.5858 215° Southwest  Level FlightAware
Sat 10:42:00 33.3667 -81.9500 212° Southwest  Level FlightAware
Sat 10:43:00 33.3699 -81.9645 212° Southwest  Level Estimated
Sat 10:44:00 33.3699 -81.9645 212° Southwest  Level Estimated
Sat 10:45:00 33.3699 -81.9645 212° Southwest  Level Estimated
Sat 10:46:00 33.3699 -81.9645 212° Southwest  Level Estimated
Sat 10:47:00 33.3699 -81.9645 212° Southwest  Level Estimated
Sat 10:48:00 33.3699 -81.9645 212° Southwest  Level Estimated
Sat 10:49:00 33.3699 -81.9645 212° Southwest  Level Estimated
Sat 10:50:00 33.3699 -81.9645 212° Southwest  Level Estimated

Login

Don't have an account? Register now (free) for customized features, flight alerts, and more!